sensor_id;sensor_type;location;lat;lon;timestamp;pressure;altitude;pressure_sealevel;temperature;humidity
57024;BME280;42916;54.346;18.562;2023-06-10T00:01:51;100797.90;;;16.08;73.13
57024;BME280;42916;54.346;18.562;2023-06-10T00:04:21;100801.80;;;16.08;73.07
57024;BME280;42916;54.346;18.562;2023-06-10T00:06:47;100799.28;;;16.08;72.73
57024;BME280;42916;54.346;18.562;2023-06-10T00:09:15;100806.09;;;16.07;72.67
57024;BME280;42916;54.346;18.562;2023-06-10T00:11:42;100809.70;;;16.06;72.32
57024;BME280;42916;54.346;18.562;2023-06-10T00:14:08;100811.47;;;16.07;71.97
57024;BME280;42916;54.346;18.562;2023-06-10T00:16:34;100807.84;;;16.06;72.05
57024;BME280;42916;54.346;18.562;2023-06-10T00:19:03;100813.17;;;16.05;72.05
57024;BME280;42916;54.346;18.562;2023-06-10T00:21:31;100812.77;;;16.03;72.23
57024;BME280;42916;54.346;18.562;2023-06-10T00:24:04;100815.84;;;15.99;72.40
57024;BME280;42916;54.346;18.562;2023-06-10T00:26:31;100812.07;;;15.96;72.72
57024;BME280;42916;54.346;18.562;2023-06-10T00:28:59;100815.58;;;15.95;73.21
57024;BME280;42916;54.346;18.562;2023-06-10T00:31:25;100815.54;;;15.93;73.51
57024;BME280;42916;54.346;18.562;2023-06-10T00:33:54;100816.33;;;15.89;74.05
57024;BME280;42916;54.346;18.562;2023-06-10T00:36:20;100821.23;;;15.82;74.34
57024;BME280;42916;54.346;18.562;2023-06-10T00:38:46;100821.08;;;15.78;74.72
57024;BME280;42916;54.346;18.562;2023-06-10T00:41:12;100818.12;;;15.73;74.84
57024;BME280;42916;54.346;18.562;2023-06-10T00:43:38;100821.80;;;15.69;75.28
57024;BME280;42916;54.346;18.562;2023-06-10T00:46:04;100818.56;;;15.67;75.61
57024;BME280;42916;54.346;18.562;2023-06-10T00:48:32;100821.92;;;15.64;75.94
57024;BME280;42916;54.346;18.562;2023-06-10T00:50:59;100824.89;;;15.61;76.15
57024;BME280;42916;54.346;18.562;2023-06-10T00:53:26;100823.42;;;15.58;76.39
57024;BME280;42916;54.346;18.562;2023-06-10T00:55:53;100830.78;;;15.55;76.54
57024;BME280;42916;54.346;18.562;2023-06-10T00:58:19;100831.49;;;15.50;77.01
57024;BME280;42916;54.346;18.562;2023-06-10T01:00:45;100837.76;;;15.46;77.03
57024;BME280;42916;54.346;18.562;2023-06-10T01:03:12;100833.48;;;15.43;77.46
57024;BME280;42916;54.346;18.562;2023-06-10T01:05:39;100837.66;;;15.42;77.82
57024;BME280;42916;54.346;18.562;2023-06-10T01:10:48;100835.36;;;15.37;78.47
57024;BME280;42916;54.346;18.562;2023-06-10T01:13:16;100838.93;;;15.35;78.49
57024;BME280;42916;54.346;18.562;2023-06-10T01:15:44;100846.66;;;15.32;78.61
57024;BME280;42916;54.346;18.562;2023-06-10T01:18:12;100842.50;;;15.31;78.65
57024;BME280;42916;54.346;18.562;2023-06-10T01:20:43;100841.25;;;15.31;78.87
57024;BME280;42916;54.346;18.562;2023-06-10T01:23:11;100842.73;;;15.30;79.08
57024;BME280;42916;54.346;18.562;2023-06-10T01:25:38;100841.29;;;15.29;79.26
57024;BME280;42916;54.346;18.562;2023-06-10T01:28:27;100846.07;;;15.28;79.43
57024;BME280;42916;54.346;18.562;2023-06-10T01:31:14;100844.31;;;15.24;79.48
57024;BME280;42916;54.346;18.562;2023-06-10T01:33:46;100845.52;;;15.19;79.95
57024;BME280;42916;54.346;18.562;2023-06-10T01:36:15;100849.41;;;15.15;79.79
57024;BME280;42916;54.346;18.562;2023-06-10T01:38:46;100853.15;;;15.13;80.08
57024;BME280;42916;54.346;18.562;2023-06-10T01:41:16;100858.69;;;15.11;80.39
57024;BME280;42916;54.346;18.562;2023-06-10T01:43:45;100856.11;;;15.09;80.58
57024;BME280;42916;54.346;18.562;2023-06-10T01:46:13;100861.48;;;15.05;80.96
57024;BME280;42916;54.346;18.562;2023-06-10T01:48:41;100869.76;;;15.04;81.06
57024;BME280;42916;54.346;18.562;2023-06-10T01:51:08;100873.30;;;15.00;81.22
57024;BME280;42916;54.346;18.562;2023-06-10T01:53:35;100873.09;;;14.97;81.44
57024;BME280;42916;54.346;18.562;2023-06-10T01:56:02;100875.38;;;14.96;81.30
57024;BME280;42916;54.346;18.562;2023-06-10T01:58:29;100880.77;;;14.96;81.48
57024;BME280;42916;54.346;18.562;2023-06-10T02:00:55;100882.73;;;14.94;81.73
57024;BME280;42916;54.346;18.562;2023-06-10T02:03:21;100888.43;;;14.91;81.92
57024;BME280;42916;54.346;18.562;2023-06-10T02:05:48;100893.08;;;14.89;82.21
57024;BME280;42916;54.346;18.562;2023-06-10T02:08:15;100892.64;;;14.87;82.39
57024;BME280;42916;54.346;18.562;2023-06-10T02:10:41;100900.42;;;14.87;82.28
57024;BME280;42916;54.346;18.562;2023-06-10T02:13:07;100898.52;;;14.87;82.17
57024;BME280;42916;54.346;18.562;2023-06-10T02:15:33;100895.33;;;14.85;82.10
57024;BME280;42916;54.346;18.562;2023-06-10T02:17:59;100901.23;;;14.84;82.22
57024;BME280;42916;54.346;18.562;2023-06-10T02:20:26;100898.11;;;14.83;82.13
57024;BME280;42916;54.346;18.562;2023-06-10T02:22:53;100901.98;;;14.81;82.07
57024;BME280;42916;54.346;18.562;2023-06-10T02:25:19;100900.40;;;14.79;82.30
57024;BME280;42916;54.346;18.562;2023-06-10T02:27:45;100903.79;;;14.76;82.35
57024;BME280;42916;54.346;18.562;2023-06-10T02:30:11;100905.28;;;14.74;82.25
57024;BME280;42916;54.346;18.562;2023-06-10T02:32:38;100907.30;;;14.73;82.17
57024;BME280;42916;54.346;18.562;2023-06-10T02:35:04;100906.59;;;14.72;82.52
57024;BME280;42916;54.346;18.562;2023-06-10T02:37:31;100905.39;;;14.72;82.44
57024;BME280;42916;54.346;18.562;2023-06-10T02:39:57;100909.15;;;14.73;82.82
57024;BME280;42916;54.346;18.562;2023-06-10T02:42:24;100907.41;;;14.72;82.97
57024;BME280;42916;54.346;18.562;2023-06-10T02:44:51;100909.44;;;14.72;82.83
57024;BME280;42916;54.346;18.562;2023-06-10T02:47:25;100909.76;;;14.69;82.87
57024;BME280;42916;54.346;18.562;2023-06-10T02:49:51;100912.86;;;14.65;82.92
57024;BME280;42916;54.346;18.562;2023-06-10T02:52:18;100914.52;;;14.65;82.92
57024;BME280;42916;54.346;18.562;2023-06-10T02:54:44;100910.95;;;14.66;82.95
57024;BME280;42916;54.346;18.562;2023-06-10T02:57:11;100915.34;;;14.67;83.18
57024;BME280;42916;54.346;18.562;2023-06-10T02:59:37;100918.30;;;14.70;83.25
57024;BME280;42916;54.346;18.562;2023-06-10T03:02:04;100915.62;;;14.71;83.32
57024;BME280;42916;54.346;18.562;2023-06-10T03:04:33;100921.10;;;14.73;83.13
57024;BME280;42916;54.346;18.562;2023-06-10T03:07:04;100924.05;;;14.73;83.25
57024;BME280;42916;54.346;18.562;2023-06-10T03:09:33;100926.90;;;14.73;83.27
57024;BME280;42916;54.346;18.562;2023-06-10T03:12:00;100922.27;;;14.76;83.16
57024;BME280;42916;54.346;18.562;2023-06-10T03:14:28;100923.41;;;14.78;82.97
57024;BME280;42916;54.346;18.562;2023-06-10T03:16:54;100920.23;;;14.82;82.96
57024;BME280;42916;54.346;18.562;2023-06-10T03:19:22;100920.20;;;14.85;82.77
57024;BME280;42916;54.346;18.562;2023-06-10T03:22:16;100927.09;;;14.88;82.59
57024;BME280;42916;54.346;18.562;2023-06-10T03:24:50;100926.17;;;14.90;82.24
57024;BME280;42916;54.346;18.562;2023-06-10T03:27:17;100926.89;;;14.90;82.25
57024;BME280;42916;54.346;18.562;2023-06-10T03:29:45;100925.90;;;14.92;81.99
57024;BME280;42916;54.346;18.562;2023-06-10T03:32:11;100921.02;;;14.95;81.59
57024;BME280;42916;54.346;18.562;2023-06-10T03:34:39;100921.41;;;14.97;81.15
57024;BME280;42916;54.346;18.562;2023-06-10T03:37:06;100923.66;;;15.01;80.83
57024;BME280;42916;54.346;18.562;2023-06-10T03:39:32;100920.94;;;15.04;80.26
57024;BME280;42916;54.346;18.562;2023-06-10T03:41:59;100922.74;;;15.09;79.74
57024;BME280;42916;54.346;18.562;2023-06-10T03:44:25;100923.29;;;15.14;79.20
57024;BME280;42916;54.346;18.562;2023-06-10T03:46:52;100928.07;;;15.18;78.62
57024;BME280;42916;54.346;18.562;2023-06-10T03:49:18;100924.45;;;15.22;78.31
57024;BME280;42916;54.346;18.562;2023-06-10T03:51:44;100924.14;;;15.27;77.82
57024;BME280;42916;54.346;18.562;2023-06-10T03:54:10;100922.70;;;15.31;77.28
57024;BME280;42916;54.346;18.562;2023-06-10T03:56:36;100927.69;;;15.35;76.62
57024;BME280;42916;54.346;18.562;2023-06-10T03:59:02;100928.73;;;15.38;76.21
57024;BME280;42916;54.346;18.562;2023-06-10T04:01:28;100932.19;;;15.41;75.52
57024;BME280;42916;54.346;18.562;2023-06-10T04:03:54;100932.40;;;15.44;74.96
57024;BME280;42916;54.346;18.562;2023-06-10T04:06:21;100936.41;;;15.47;74.10
57024;BME280;42916;54.346;18.562;2023-06-10T04:08:48;100939.48;;;15.50;73.68
57024;BME280;42916;54.346;18.562;2023-06-10T04:11:14;100933.44;;;15.53;72.93
57024;BME280;42916;54.346;18.562;2023-06-10T04:13:40;100934.75;;;15.57;72.14
57024;BME280;42916;54.346;18.562;2023-06-10T04:16:06;100939.41;;;15.57;71.29
57024;BME280;42916;54.346;18.562;2023-06-10T04:18:33;100940.89;;;15.61;71.22
57024;BME280;42916;54.346;18.562;2023-06-10T04:21:03;100940.84;;;15.65;70.98
57024;BME280;42916;54.346;18.562;2023-06-10T04:23:30;100941.65;;;15.69;70.75
57024;BME280;42916;54.346;18.562;2023-06-10T04:25:56;100940.63;;;15.74;70.66
57024;BME280;42916;54.346;18.562;2023-06-10T04:28:23;100943.25;;;15.80;70.33
57024;BME280;42916;54.346;18.562;2023-06-10T04:30:49;100945.73;;;15.86;70.11
57024;BME280;42916;54.346;18.562;2023-06-10T04:33:15;100951.30;;;15.87;69.16
57024;BME280;42916;54.346;18.562;2023-06-10T04:35:42;100958.55;;;15.90;69.17
57024;BME280;42916;54.346;18.562;2023-06-10T04:38:10;100961.27;;;15.95;68.55
57024;BME280;42916;54.346;18.562;2023-06-10T04:40:37;100961.93;;;15.96;68.33
57024;BME280;42916;54.346;18.562;2023-06-10T04:43:03;100959.13;;;15.98;67.73
57024;BME280;42916;54.346;18.562;2023-06-10T04:45:30;100961.20;;;15.97;67.55
57024;BME280;42916;54.346;18.562;2023-06-10T04:47:57;100957.17;;;15.98;66.96
57024;BME280;42916;54.346;18.562;2023-06-10T04:50:24;100960.67;;;15.98;66.71
57024;BME280;42916;54.346;18.562;2023-06-10T04:52:50;100961.75;;;15.99;66.35
57024;BME280;42916;54.346;18.562;2023-06-10T04:55:16;100965.83;;;15.99;66.03
57024;BME280;42916;54.346;18.562;2023-06-10T04:57:42;100972.19;;;16.01;65.65
57024;BME280;42916;54.346;18.562;2023-06-10T05:00:09;100971.68;;;16.04;65.35
57024;BME280;42916;54.346;18.562;2023-06-10T05:02:35;100972.22;;;16.07;65.22
57024;BME280;42916;54.346;18.562;2023-06-10T05:05:01;100980.95;;;16.11;65.24
57024;BME280;42916;54.346;18.562;2023-06-10T05:07:27;100983.91;;;16.15;64.62
57024;BME280;42916;54.346;18.562;2023-06-10T05:09:53;100984.27;;;16.18;64.70
57024;BME280;42916;54.346;18.562;2023-06-10T05:12:19;100985.97;;;16.22;64.02
57024;BME280;42916;54.346;18.562;2023-06-10T05:14:45;100990.08;;;16.25;64.15
57024;BME280;42916;54.346;18.562;2023-06-10T05:17:11;100994.13;;;16.31;64.57
57024;BME280;42916;54.346;18.562;2023-06-10T05:19:38;100997.07;;;16.37;64.23
57024;BME280;42916;54.346;18.562;2023-06-10T05:22:04;100996.17;;;16.40;63.48
57024;BME280;42916;54.346;18.562;2023-06-10T05:24:30;100997.87;;;16.42;63.63
57024;BME280;42916;54.346;18.562;2023-06-10T05:26:56;100998.86;;;16.45;63.53
57024;BME280;42916;54.346;18.562;2023-06-10T05:29:23;101002.35;;;16.49;63.47
57024;BME280;42916;54.346;18.562;2023-06-10T05:31:49;101004.55;;;16.53;63.40
57024;BME280;42916;54.346;18.562;2023-06-10T05:34:15;101006.61;;;16.55;62.90
57024;BME280;42916;54.346;18.562;2023-06-10T05:36:41;101012.59;;;16.58;62.49
57024;BME280;42916;54.346;18.562;2023-06-10T05:39:09;101013.48;;;16.55;61.88
57024;BME280;42916;54.346;18.562;2023-06-10T05:41:36;101018.87;;;16.52;61.58
57024;BME280;42916;54.346;18.562;2023-06-10T05:44:02;101015.64;;;16.50;61.47
57024;BME280;42916;54.346;18.562;2023-06-10T05:46:28;101019.55;;;16.51;61.39
57024;BME280;42916;54.346;18.562;2023-06-10T05:48:54;101022.77;;;16.52;61.36
57024;BME280;42916;54.346;18.562;2023-06-10T05:51:20;101021.62;;;16.52;60.90
57024;BME280;42916;54.346;18.562;2023-06-10T05:53:46;101021.90;;;16.54;60.85
57024;BME280;42916;54.346;18.562;2023-06-10T05:56:13;101023.97;;;16.56;60.60
57024;BME280;42916;54.346;18.562;2023-06-10T05:58:40;101027.60;;;16.55;60.23
57024;BME280;42916;54.346;18.562;2023-06-10T06:01:06;101027.53;;;16.58;60.40
57024;BME280;42916;54.346;18.562;2023-06-10T06:03:32;101028.56;;;16.64;60.41
57024;BME280;42916;54.346;18.562;2023-06-10T06:05:58;101032.73;;;16.64;60.00
57024;BME280;42916;54.346;18.562;2023-06-10T06:08:24;101034.45;;;16.65;59.93
57024;BME280;42916;54.346;18.562;2023-06-10T06:10:50;101035.73;;;16.68;60.20
57024;BME280;42916;54.346;18.562;2023-06-10T06:13:16;101039.84;;;16.71;60.40
57024;BME280;42916;54.346;18.562;2023-06-10T06:15:42;101037.81;;;16.71;60.02
57024;BME280;42916;54.346;18.562;2023-06-10T06:18:08;101036.13;;;16.70;59.80
57024;BME280;42916;54.346;18.562;2023-06-10T06:20:34;101037.61;;;16.66;59.68
57024;BME280;42916;54.346;18.562;2023-06-10T06:23:00;101036.17;;;16.69;59.98
57024;BME280;42916;54.346;18.562;2023-06-10T06:25:27;101035.61;;;16.75;60.22
57024;BME280;42916;54.346;18.562;2023-06-10T06:27:53;101042.77;;;16.79;59.80
57024;BME280;42916;54.346;18.562;2023-06-10T06:30:19;101042.79;;;16.77;59.26
57024;BME280;42916;54.346;18.562;2023-06-10T06:32:45;101048.55;;;16.79;59.70
57024;BME280;42916;54.346;18.562;2023-06-10T06:35:11;101050.76;;;16.85;59.67
57024;BME280;42916;54.346;18.562;2023-06-10T06:37:37;101051.85;;;16.88;59.44
57024;BME280;42916;54.346;18.562;2023-06-10T06:40:14;101055.15;;;16.85;59.12
57024;BME280;42916;54.346;18.562;2023-06-10T06:42:40;101053.79;;;16.85;59.00
57024;BME280;42916;54.346;18.562;2023-06-10T06:45:28;101057.72;;;16.90;59.04
57024;BME280;42916;54.346;18.562;2023-06-10T06:47:55;101057.20;;;16.97;59.20
57024;BME280;42916;54.346;18.562;2023-06-10T06:50:21;101066.23;;;17.04;59.21
57024;BME280;42916;54.346;18.562;2023-06-10T06:52:47;101068.03;;;17.05;58.56
57024;BME280;42916;54.346;18.562;2023-06-10T06:55:14;101078.97;;;17.05;58.83
57024;BME280;42916;54.346;18.562;2023-06-10T06:57:40;101072.90;;;17.09;59.24
57024;BME280;42916;54.346;18.562;2023-06-10T07:00:06;101075.07;;;17.17;59.50
57024;BME280;42916;54.346;18.562;2023-06-10T07:02:35;101077.98;;;17.17;58.68
57024;BME280;42916;54.346;18.562;2023-06-10T07:05:01;101084.48;;;17.13;58.90
57024;BME280;42916;54.346;18.562;2023-06-10T07:07:27;101082.60;;;17.18;59.24
57024;BME280;42916;54.346;18.562;2023-06-10T07:09:53;101090.93;;;17.22;59.14
57024;BME280;42916;54.346;18.562;2023-06-10T07:12:19;101092.23;;;17.25;59.28
57024;BME280;42916;54.346;18.562;2023-06-10T07:14:50;101095.39;;;17.32;59.16
57024;BME280;42916;54.346;18.562;2023-06-10T07:17:17;101100.09;;;17.36;58.87
57024;BME280;42916;54.346;18.562;2023-06-10T07:19:46;101099.83;;;17.44;59.11
57024;BME280;42916;54.346;18.562;2023-06-10T07:22:12;101103.75;;;17.49;59.07
57024;BME280;42916;54.346;18.562;2023-06-10T07:24:38;101103.91;;;17.58;59.06
57024;BME280;42916;54.346;18.562;2023-06-10T07:27:04;101098.48;;;17.65;58.52
57024;BME280;42916;54.346;18.562;2023-06-10T07:29:31;101101.45;;;17.66;58.61
57024;BME280;42916;54.346;18.562;2023-06-10T07:31:57;101100.59;;;17.69;58.62
57024;BME280;42916;54.346;18.562;2023-06-10T07:34:23;101101.02;;;17.70;58.24
57024;BME280;42916;54.346;18.562;2023-06-10T07:36:49;101099.48;;;17.69;58.20
57024;BME280;42916;54.346;18.562;2023-06-10T07:39:15;101105.37;;;17.70;57.51
57024;BME280;42916;54.346;18.562;2023-06-10T07:41:41;101100.73;;;17.70;57.09
57024;BME280;42916;54.346;18.562;2023-06-10T07:44:07;101106.60;;;17.75;57.16
57024;BME280;42916;54.346;18.562;2023-06-10T07:46:33;101106.77;;;17.77;56.70
57024;BME280;42916;54.346;18.562;2023-06-10T07:48:59;101108.95;;;17.77;56.30
57024;BME280;42916;54.346;18.562;2023-06-10T07:51:25;101115.63;;;17.77;56.11
57024;BME280;42916;54.346;18.562;2023-06-10T07:53:52;101114.48;;;17.75;56.02
57024;BME280;42916;54.346;18.562;2023-06-10T07:56:18;101109.11;;;17.79;56.15
57024;BME280;42916;54.346;18.562;2023-06-10T07:58:44;101110.84;;;17.84;56.01
57024;BME280;42916;54.346;18.562;2023-06-10T08:01:10;101113.98;;;17.87;55.42
57024;BME280;42916;54.346;18.562;2023-06-10T08:03:36;101116.45;;;17.86;55.37
57024;BME280;42916;54.346;18.562;2023-06-10T08:06:02;101119.10;;;17.83;55.20
57024;BME280;42916;54.346;18.562;2023-06-10T08:08:28;101122.02;;;17.83;55.01
57024;BME280;42916;54.346;18.562;2023-06-10T08:10:54;101124.88;;;17.76;54.79
57024;BME280;42916;54.346;18.562;2023-06-10T08:13:20;101127.17;;;17.76;54.98
57024;BME280;42916;54.346;18.562;2023-06-10T08:15:47;101128.25;;;17.83;55.38
57024;BME280;42916;54.346;18.562;2023-06-10T08:18:16;101126.37;;;17.95;54.91
57024;BME280;42916;54.346;18.562;2023-06-10T08:20:42;101132.16;;;18.00;54.78
57024;BME280;42916;54.346;18.562;2023-06-10T08:23:08;101127.00;;;18.03;54.27
57024;BME280;42916;54.346;18.562;2023-06-10T08:25:34;101120.38;;;18.06;54.10
57024;BME280;42916;54.346;18.562;2023-06-10T08:28:00;101122.61;;;18.10;53.92
57024;BME280;42916;54.346;18.562;2023-06-10T08:30:26;101122.81;;;18.06;54.04
57024;BME280;42916;54.346;18.562;2023-06-10T08:32:52;101122.73;;;18.08;54.25
57024;BME280;42916;54.346;18.562;2023-06-10T08:35:18;101125.09;;;18.17;54.07
57024;BME280;42916;54.346;18.562;2023-06-10T08:37:45;101121.73;;;18.17;53.44
57024;BME280;42916;54.346;18.562;2023-06-10T08:40:11;101120.10;;;18.15;53.26
57024;BME280;42916;54.346;18.562;2023-06-10T08:42:49;101121.80;;;18.14;52.93
57024;BME280;42916;54.346;18.562;2023-06-10T08:45:18;101120.26;;;18.15;53.08
57024;BME280;42916;54.346;18.562;2023-06-10T08:47:45;101119.17;;;18.25;53.38
57024;BME280;42916;54.346;18.562;2023-06-10T08:50:12;101123.41;;;18.41;53.40
57024;BME280;42916;54.346;18.562;2023-06-10T08:52:42;101119.25;;;18.52;53.37
57024;BME280;42916;54.346;18.562;2023-06-10T08:55:18;101118.91;;;18.57;53.01
57024;BME280;42916;54.346;18.562;2023-06-10T08:57:45;101125.02;;;18.53;52.74
57024;BME280;42916;54.346;18.562;2023-06-10T09:00:13;101128.94;;;18.53;52.68
57024;BME280;42916;54.346;18.562;2023-06-10T09:02:40;101128.27;;;18.48;52.39
57024;BME280;42916;54.346;18.562;2023-06-10T09:05:07;101128.09;;;18.43;52.49
57024;BME280;42916;54.346;18.562;2023-06-10T09:07:33;101133.05;;;18.50;52.78
57024;BME280;42916;54.346;18.562;2023-06-10T09:10:03;101131.44;;;18.50;52.87
57024;BME280;42916;54.346;18.562;2023-06-10T09:12:29;101128.17;;;18.40;52.83
57024;BME280;42916;54.346;18.562;2023-06-10T09:14:55;101128.52;;;18.39;53.38
57024;BME280;42916;54.346;18.562;2023-06-10T09:17:22;101128.11;;;18.47;53.02
57024;BME280;42916;54.346;18.562;2023-06-10T09:19:50;101128.91;;;18.49;53.00
57024;BME280;42916;54.346;18.562;2023-06-10T09:22:16;101130.80;;;18.63;53.13
57024;BME280;42916;54.346;18.562;2023-06-10T09:24:42;101123.88;;;18.73;52.87
57024;BME280;42916;54.346;18.562;2023-06-10T09:27:08;101122.28;;;18.77;52.89
57024;BME280;42916;54.346;18.562;2023-06-10T09:29:52;101132.06;;;18.82;52.16
57024;BME280;42916;54.346;18.562;2023-06-10T09:32:19;101131.80;;;18.87;52.70
57024;BME280;42916;54.346;18.562;2023-06-10T09:34:45;101133.55;;;19.02;53.28
57024;BME280;42916;54.346;18.562;2023-06-10T09:37:12;101135.34;;;18.99;52.83
57024;BME280;42916;54.346;18.562;2023-06-10T09:39:40;101134.77;;;18.97;53.55
57024;BME280;42916;54.346;18.562;2023-06-10T09:42:18;101135.46;;;19.04;53.85
57024;BME280;42916;54.346;18.562;2023-06-10T09:44:51;101138.82;;;19.08;53.42
57024;BME280;42916;54.346;18.562;2023-06-10T09:47:22;101145.67;;;19.12;53.58
57024;BME280;42916;54.346;18.562;2023-06-10T09:49:49;101147.83;;;19.07;53.60
57024;BME280;42916;54.346;18.562;2023-06-10T09:52:23;101147.16;;;19.07;53.59
57024;BME280;42916;54.346;18.562;2023-06-10T09:55:08;101147.31;;;19.08;53.84
57024;BME280;42916;54.346;18.562;2023-06-10T09:57:35;101147.52;;;19.17;53.83
57024;BME280;42916;54.346;18.562;2023-06-10T10:00:06;101148.64;;;19.09;53.34
57024;BME280;42916;54.346;18.562;2023-06-10T10:02:49;101151.67;;;19.04;53.66
57024;BME280;42916;54.346;18.562;2023-06-10T10:05:18;101146.91;;;19.06;53.54
57024;BME280;42916;54.346;18.562;2023-06-10T10:07:45;101141.69;;;19.09;53.40
57024;BME280;42916;54.346;18.562;2023-06-10T10:10:12;101144.30;;;19.15;53.26
57024;BME280;42916;54.346;18.562;2023-06-10T10:12:40;101145.55;;;19.17;52.85
57024;BME280;42916;54.346;18.562;2023-06-10T10:15:07;101140.96;;;19.18;53.15
57024;BME280;42916;54.346;18.562;2023-06-10T10:20:27;101140.53;;;19.30;52.85
57024;BME280;42916;54.346;18.562;2023-06-10T10:22:57;101142.81;;;19.33;52.99
57024;BME280;42916;54.346;18.562;2023-06-10T10:25:24;101140.49;;;19.42;52.84
57024;BME280;42916;54.346;18.562;2023-06-10T10:27:56;101134.15;;;19.45;52.68
57024;BME280;42916;54.346;18.562;2023-06-10T10:30:23;101140.17;;;19.40;53.04
57024;BME280;42916;54.346;18.562;2023-06-10T10:32:58;101142.63;;;19.58;53.33
57024;BME280;42916;54.346;18.562;2023-06-10T10:35:27;101140.44;;;19.82;52.99
57024;BME280;42916;54.346;18.562;2023-06-10T10:37:55;101144.05;;;20.01;52.24
57024;BME280;42916;54.346;18.562;2023-06-10T10:40:24;101139.33;;;20.06;51.01
57024;BME280;42916;54.346;18.562;2023-06-10T10:42:52;101141.83;;;20.06;50.68
57024;BME280;42916;54.346;18.562;2023-06-10T10:45:18;101145.25;;;20.13;50.98
57024;BME280;42916;54.346;18.562;2023-06-10T10:47:46;101138.81;;;20.24;50.78
57024;BME280;42916;54.346;18.562;2023-06-10T10:50:16;101139.02;;;20.35;50.53
57024;BME280;42916;54.346;18.562;2023-06-10T10:52:51;101137.27;;;20.46;50.88
57024;BME280;42916;54.346;18.562;2023-06-10T10:55:18;101142.38;;;20.58;50.30
57024;BME280;42916;54.346;18.562;2023-06-10T10:57:44;101145.02;;;20.69;50.54
57024;BME280;42916;54.346;18.562;2023-06-10T11:00:11;101147.15;;;20.79;50.22
57024;BME280;42916;54.346;18.562;2023-06-10T11:02:42;101150.05;;;20.83;49.76
57024;BME280;42916;54.346;18.562;2023-06-10T11:05:14;101151.11;;;20.91;49.49
57024;BME280;42916;54.346;18.562;2023-06-10T11:07:53;101150.63;;;21.01;49.32
57024;BME280;42916;54.346;18.562;2023-06-10T11:10:52;101151.16;;;21.05;48.53
57024;BME280;42916;54.346;18.562;2023-06-10T11:13:20;101150.50;;;21.13;48.65
57024;BME280;42916;54.346;18.562;2023-06-10T11:15:48;101149.38;;;21.12;48.52
57024;BME280;42916;54.346;18.562;2023-06-10T11:18:25;101147.13;;;21.24;48.09
57024;BME280;42916;54.346;18.562;2023-06-10T11:20:52;101147.35;;;21.18;47.83
57024;BME280;42916;54.346;18.562;2023-06-10T11:31:42;101139.87;;;20.97;46.97
57024;BME280;42916;54.346;18.562;2023-06-10T11:34:08;101144.95;;;21.00;46.96
57024;BME280;42916;54.346;18.562;2023-06-10T11:36:42;101152.44;;;21.07;46.36
57024;BME280;42916;54.346;18.562;2023-06-10T11:39:11;101148.65;;;21.03;46.68
57024;BME280;42916;54.346;18.562;2023-06-10T11:41:38;101149.97;;;21.22;47.04
57024;BME280;42916;54.346;18.562;2023-06-10T11:44:13;101153.19;;;21.46;46.73
57024;BME280;42916;54.346;18.562;2023-06-10T11:46:40;101149.54;;;21.54;45.98
57024;BME280;42916;54.346;18.562;2023-06-10T11:49:08;101151.59;;;21.57;45.66
57024;BME280;42916;54.346;18.562;2023-06-10T11:51:36;101152.91;;;21.64;46.15
57024;BME280;42916;54.346;18.562;2023-06-10T11:54:03;101152.62;;;21.98;46.26
57024;BME280;42916;54.346;18.562;2023-06-10T11:56:30;101153.84;;;22.34;46.23
57024;BME280;42916;54.346;18.562;2023-06-10T12:01:26;101155.98;;;22.83;44.40
57024;BME280;42916;54.346;18.562;2023-06-10T12:06:24;101151.62;;;23.12;44.19
57024;BME280;42916;54.346;18.562;2023-06-10T12:08:50;101146.81;;;23.41;43.29
57024;BME280;42916;54.346;18.562;2023-06-10T12:11:17;101149.95;;;23.60;42.58
57024;BME280;42916;54.346;18.562;2023-06-10T12:13:47;101157.20;;;23.86;42.79
57024;BME280;42916;54.346;18.562;2023-06-10T12:16:16;101157.75;;;24.09;42.91
57024;BME280;42916;54.346;18.562;2023-06-10T12:18:45;101151.66;;;24.50;42.47
57024;BME280;42916;54.346;18.562;2023-06-10T12:21:18;101154.27;;;24.92;41.97
57024;BME280;42916;54.346;18.562;2023-06-10T12:24:19;101153.69;;;24.84;41.04
57024;BME280;42916;54.346;18.562;2023-06-10T12:26:46;101151.65;;;24.98;40.98
57024;BME280;42916;54.346;18.562;2023-06-10T12:29:15;101161.70;;;24.78;40.33
57024;BME280;42916;54.346;18.562;2023-06-10T12:32:01;101153.13;;;24.36;40.03
57024;BME280;42916;54.346;18.562;2023-06-10T12:34:38;101155.16;;;24.10;40.93
57024;BME280;42916;54.346;18.562;2023-06-10T12:37:07;101156.19;;;24.18;41.07
57024;BME280;42916;54.346;18.562;2023-06-10T12:39:40;101155.81;;;24.48;41.67
57024;BME280;42916;54.346;18.562;2023-06-10T12:42:08;101156.95;;;24.77;40.90
57024;BME280;42916;54.346;18.562;2023-06-10T12:44:39;101154.25;;;24.74;40.62
57024;BME280;42916;54.346;18.562;2023-06-10T12:47:08;101156.04;;;24.79;40.18
57024;BME280;42916;54.346;18.562;2023-06-10T12:49:34;101146.36;;;24.78;39.89
57024;BME280;42916;54.346;18.562;2023-06-10T12:52:01;101144.52;;;24.68;40.19
57024;BME280;42916;54.346;18.562;2023-06-10T12:54:27;101145.99;;;24.96;40.68
57024;BME280;42916;54.346;18.562;2023-06-10T12:56:53;101147.38;;;25.44;39.99
57024;BME280;42916;54.346;18.562;2023-06-10T12:59:19;101147.61;;;25.71;39.66
57024;BME280;42916;54.346;18.562;2023-06-10T13:01:51;101151.02;;;26.05;38.76
57024;BME280;42916;54.346;18.562;2023-06-10T13:04:18;101149.23;;;26.02;37.55